createdAt,value
2017-08-31T12:02:08.839Z,54
2017-08-31T12:07:04.995Z,52
2017-08-31T12:12:05.302Z,56
2017-08-31T12:17:06.567Z,51
2017-08-31T12:22:07.356Z,49
2017-08-31T12:27:06.289Z,48
2017-08-31T12:32:06.641Z,48
2017-08-31T12:37:06.963Z,48
2017-08-31T12:42:07.832Z,47
2017-08-31T12:47:10.229Z,46
2017-08-31T12:52:07.985Z,49
2017-08-31T12:57:08.332Z,50
2017-08-31T13:02:12.137Z,52
2017-08-31T13:07:11.117Z,50
2017-08-31T13:12:09.326Z,49
2017-08-31T13:17:09.664Z,51
2017-08-31T13:22:13.272Z,54
2017-08-31T13:27:21.559Z,54
2017-08-31T13:32:10.667Z,55
2017-08-31T13:37:11.024Z,55
2017-08-31T13:42:20.408Z,55
2017-08-31T13:47:11.692Z,54
2017-08-31T13:52:12.189Z,55
2017-08-31T13:57:25.969Z,55
2017-08-31T14:02:33.352Z,54
2017-08-31T14:07:13.032Z,55
2017-08-31T14:12:13.368Z,55
2017-08-31T14:17:13.727Z,55
2017-08-31T14:22:14.049Z,55
2017-08-31T14:27:14.497Z,55
2017-08-31T14:32:14.714Z,55
2017-08-31T14:37:15.072Z,55
2017-08-31T14:42:15.406Z,55
2017-08-31T14:47:17.389Z,54
2017-08-31T14:52:16.087Z,55
2017-08-31T14:57:16.548Z,55
2017-08-31T15:02:18.307Z,55
2017-08-31T15:07:17.091Z,55
2017-08-31T15:12:19.057Z,56
2017-08-31T15:17:17.784Z,55
2017-08-31T15:22:18.808Z,55
2017-08-31T15:27:18.420Z,55
2017-08-31T15:32:18.799Z,55
2017-08-31T15:37:19.173Z,55
2017-08-31T15:42:40.870Z,55
2017-08-31T15:47:19.813Z,56
2017-08-31T15:52:20.125Z,55
2017-08-31T15:57:20.472Z,55
2017-08-31T16:02:20.870Z,55
